createdAt,value
2017-09-20T00:01:56.002Z,10.70
2017-09-20T00:04:22.187Z,9.90
2017-09-20T00:06:49.105Z,9.93
2017-09-20T00:09:15.303Z,10.83
2017-09-20T00:11:41.508Z,10.90
2017-09-20T00:14:07.685Z,10.53
2017-09-20T00:16:33.876Z,11.17
2017-09-20T00:19:00.036Z,10.17
2017-09-20T00:21:26.186Z,9.47
2017-09-20T00:23:52.360Z,9.90
2017-09-20T00:26:18.538Z,11.57
2017-09-20T00:28:45.801Z,11.40
2017-09-20T00:31:12.001Z,10.87
2017-09-20T00:33:38.158Z,10.60
2017-09-20T00:36:04.380Z,9.77
2017-09-20T00:38:30.539Z,9.97
2017-09-20T00:40:57.446Z,9.83
2017-09-20T00:43:23.625Z,10.37
2017-09-20T00:45:49.799Z,10.33
2017-09-20T00:48:15.967Z,10.93
2017-09-20T00:50:42.874Z,11.70
2017-09-20T00:53:09.073Z,12.10
2017-09-20T00:55:35.235Z,10.87
2017-09-20T00:58:01.927Z,12.37
2017-09-20T01:00:28.096Z,12.80
2017-09-20T01:02:54.249Z,12.43
2017-09-20T01:05:21.151Z,15.40
2017-09-20T01:07:47.329Z,11.43
2017-09-20T01:10:14.231Z,13.90
2017-09-20T01:12:40.427Z,11.13
2017-09-20T01:15:06.586Z,11.80
2017-09-20T01:17:32.744Z,12.43
2017-09-20T01:19:59.702Z,13.67
2017-09-20T01:22:51.687Z,12.37
2017-09-20T01:25:17.946Z,12.97
2017-09-20T01:27:44.167Z,12.30
2017-09-20T01:30:10.364Z,13.87
2017-09-20T01:32:36.556Z,13.93
2017-09-20T01:35:02.733Z,15.17
2017-09-20T01:37:28.938Z,15.10
2017-09-20T01:39:55.111Z,18.37
2017-09-20T01:42:21.300Z,14.87
2017-09-20T01:44:47.538Z,20.67
2017-09-20T01:47:13.730Z,16.37
2017-09-20T01:49:39.902Z,15.43
2017-09-20T01:52:06.145Z,16.20
2017-09-20T01:54:32.328Z,17.00
2017-09-20T01:56:58.540Z,18.50
2017-09-20T01:59:24.770Z,16.10
2017-09-20T02:01:50.948Z,15.93
2017-09-20T02:04:17.146Z,16.93
2017-09-20T02:06:43.334Z,16.10
2017-09-20T02:09:10.240Z,15.80
2017-09-20T02:11:36.430Z,14.83
2017-09-20T02:14:02.633Z,14.10
2017-09-20T02:16:29.590Z,15.23
2017-09-20T02:18:56.506Z,14.73
2017-09-20T02:21:23.433Z,14.70
2017-09-20T02:23:49.618Z,14.50
2017-09-20T02:26:15.775Z,16.60
2017-09-20T02:28:41.955Z,16.70
2017-09-20T02:31:08.881Z,15.27
2017-09-20T02:33:35.055Z,13.50
2017-09-20T02:36:01.228Z,15.07
2017-09-20T02:38:27.449Z,13.80
2017-09-20T02:40:53.623Z,13.97
2017-09-20T02:43:20.507Z,14.47
2017-09-20T02:45:46.677Z,14.90
2017-09-20T02:48:14.555Z,13.90
2017-09-20T02:50:42.428Z,15.57
2017-09-20T02:53:08.628Z,14.20
2017-09-20T02:55:34.797Z,13.67
2017-09-20T02:58:00.988Z,14.33
2017-09-20T03:00:27.165Z,13.20
2017-09-20T03:02:53.346Z,12.93
2017-09-20T03:05:19.510Z,15.30
2017-09-20T03:07:45.708Z,12.67
2017-09-20T03:10:12.675Z,12.27
2017-09-20T03:12:38.880Z,11.00
2017-09-20T03:15:05.814Z,11.47
2017-09-20T03:17:31.990Z,10.60
2017-09-20T03:19:58.170Z,12.67
2017-09-20T03:22:24.328Z,11.83
2017-09-20T03:24:50.526Z,10.73
2017-09-20T03:27:16.747Z,11.47
2017-09-20T03:29:42.898Z,11.53
2017-09-20T03:32:09.838Z,12.13
2017-09-20T03:34:36.771Z,10.27
2017-09-20T03:37:02.946Z,11.57
2017-09-20T03:39:29.139Z,11.00
2017-09-20T03:41:56.047Z,11.30
2017-09-20T03:44:22.229Z,10.60
2017-09-20T03:46:48.426Z,11.50
2017-09-20T03:49:14.587Z,12.10
2017-09-20T03:51:40.751Z,11.80
2017-09-20T03:54:06.996Z,13.40
2017-09-20T03:56:33.151Z,12.10
2017-09-20T03:59:00.074Z,12.20
2017-09-20T04:01:27.071Z,12.47
2017-09-20T04:03:53.263Z,12.40
2017-09-20T04:06:19.451Z,11.83
2017-09-20T04:08:45.627Z,11.10
2017-09-20T04:11:12.572Z,12.20
2017-09-20T04:13:39.515Z,11.00
2017-09-20T04:16:06.452Z,11.80
2017-09-20T04:18:39.611Z,12.90
2017-09-20T04:21:05.813Z,12.20
2017-09-20T04:23:31.981Z,10.93
2017-09-20T04:25:58.135Z,12.30
2017-09-20T04:28:25.053Z,12.10
2017-09-20T04:30:52.003Z,13.23
2017-09-20T04:33:18.205Z,12.33
2017-09-20T04:35:44.359Z,12.53
2017-09-20T04:38:10.560Z,11.83
2017-09-20T04:40:36.759Z,11.80
2017-09-20T04:43:02.959Z,12.17
2017-09-20T04:45:29.883Z,11.80
2017-09-20T04:47:56.048Z,11.57
2017-09-20T04:50:22.964Z,12.47
2017-09-20T04:52:49.128Z,12.60
2017-09-20T04:55:15.816Z,13.17
2017-09-20T04:57:42.006Z,19.20
2017-09-20T05:00:08.193Z,25.50
2017-09-20T05:02:34.375Z,24.10
2017-09-20T05:05:00.546Z,15.83
2017-09-20T05:07:26.712Z,16.33
2017-09-20T05:09:52.908Z,15.53
2017-09-20T05:12:19.066Z,15.90
2017-09-20T05:14:45.244Z,15.87
2017-09-20T05:17:11.406Z,14.60
2017-09-20T05:19:38.383Z,15.23
2017-09-20T05:22:04.552Z,17.40
2017-09-20T05:24:30.750Z,22.13
2017-09-20T05:26:56.892Z,19.60
2017-09-20T05:29:23.074Z,19.67
2017-09-20T05:31:49.282Z,20.73
2017-09-20T05:34:16.194Z,18.07
2017-09-20T05:36:42.371Z,17.73
2017-09-20T05:39:08.558Z,22.70
2017-09-20T05:41:34.722Z,32.60
2017-09-20T05:44:01.690Z,29.27
2017-09-20T05:46:27.851Z,28.50
2017-09-20T05:48:54.015Z,32.07
2017-09-20T05:51:20.964Z,27.57
2017-09-20T05:53:47.907Z,29.60
2017-09-20T05:56:14.827Z,30.00
2017-09-20T05:58:41.027Z,31.97
2017-09-20T06:01:07.229Z,32.67
2017-09-20T06:03:33.413Z,30.40
2017-09-20T06:05:59.589Z,29.97
2017-09-20T06:08:25.763Z,30.00
2017-09-20T06:10:51.928Z,31.17
2017-09-20T06:13:18.876Z,34.53
2017-09-20T06:15:45.072Z,31.40
2017-09-20T06:18:11.223Z,32.27
2017-09-20T06:20:38.155Z,29.60
2017-09-20T06:23:05.117Z,30.70
2017-09-20T06:25:32.056Z,30.03
2017-09-20T06:27:59.886Z,30.30
2017-09-20T06:30:26.092Z,29.93
2017-09-20T06:32:52.361Z,28.07
2017-09-20T06:35:18.528Z,28.13
2017-09-20T06:37:44.816Z,28.00
2017-09-20T06:40:11.058Z,28.87
2017-09-20T06:42:37.990Z,29.60
2017-09-20T06:45:04.183Z,29.90
2017-09-20T06:47:30.374Z,30.70
2017-09-20T06:49:58.325Z,30.00
2017-09-20T06:52:24.517Z,28.40
2017-09-20T06:54:50.681Z,29.30
2017-09-20T06:57:16.867Z,28.70
2017-09-20T06:59:43.047Z,28.60
2017-09-20T07:02:10.007Z,31.70
2017-09-20T07:04:36.235Z,28.73
2017-09-20T07:07:02.435Z,27.87
2017-09-20T07:09:28.652Z,27.23
2017-09-20T07:11:55.623Z,27.30
2017-09-20T07:14:22.535Z,27.70
2017-09-20T07:16:48.725Z,29.00
2017-09-20T07:19:14.923Z,29.00
2017-09-20T07:21:41.876Z,28.30
2017-09-20T07:24:08.811Z,28.27
2017-09-20T07:26:35.784Z,29.83
2017-09-20T07:29:01.972Z,26.93
2017-09-20T07:31:28.201Z,28.47
2017-09-20T07:33:55.446Z,29.47
2017-09-20T07:36:21.690Z,32.20
2017-09-20T07:38:48.616Z,31.40
2017-09-20T07:41:14.843Z,32.60
2017-09-20T07:43:41.058Z,33.60
2017-09-20T07:46:07.262Z,28.10
2017-09-20T07:48:33.459Z,28.47
2017-09-20T07:51:00.390Z,32.07
2017-09-20T07:53:26.683Z,28.97
2017-09-20T07:55:52.870Z,27.73
2017-09-20T07:58:19.840Z,27.83
2017-09-20T08:00:46.099Z,29.40
2017-09-20T08:03:12.332Z,27.60
2017-09-20T08:05:38.577Z,26.20
2017-09-20T08:08:04.762Z,26.73
2017-09-20T08:10:30.950Z,27.70
2017-09-20T08:12:57.945Z,29.03
2017-09-20T08:15:24.141Z,29.97
2017-09-20T08:17:50.339Z,31.50
2017-09-20T08:20:16.553Z,28.00
2017-09-20T08:22:42.753Z,30.00
2017-09-20T08:25:08.963Z,29.67
2017-09-20T08:27:36.107Z,26.20
2017-09-20T08:30:02.275Z,25.73
2017-09-20T08:32:28.483Z,26.80
2017-09-20T08:34:54.674Z,27.73
2017-09-20T08:37:21.608Z,27.10
2017-09-20T08:39:47.816Z,28.93
2017-09-20T08:42:14.037Z,26.80
2017-09-20T08:44:40.192Z,27.50
2017-09-20T08:47:07.138Z,29.53
2017-09-20T08:49:34.147Z,25.80
2017-09-20T08:52:00.331Z,26.20
2017-09-20T08:54:27.250Z,24.47
2017-09-20T08:56:53.422Z,23.93
2017-09-20T08:59:19.586Z,22.67
2017-09-20T09:01:45.790Z,22.70
2017-09-20T09:04:11.972Z,22.37
2017-09-20T09:06:38.938Z,21.20
2017-09-20T09:09:05.127Z,21.60
2017-09-20T09:11:31.323Z,23.10
2017-09-20T09:13:57.555Z,20.87
2017-09-20T09:16:23.723Z,21.60
2017-09-20T09:18:50.659Z,21.17
2017-09-20T09:21:16.840Z,20.67
2017-09-20T09:23:43.063Z,20.53
2017-09-20T09:26:09.252Z,21.70
2017-09-20T09:28:36.295Z,22.10
2017-09-20T09:31:02.515Z,24.67
2017-09-20T09:33:28.659Z,25.47
2017-09-20T09:35:56.345Z,26.63
2017-09-20T09:38:22.571Z,24.60
2017-09-20T09:40:49.498Z,22.43
2017-09-20T09:43:16.443Z,25.30
2017-09-20T09:45:42.636Z,25.10
2017-09-20T09:48:08.832Z,25.00
2017-09-20T09:50:35.056Z,25.37
2017-09-20T09:53:01.337Z,22.70
2017-09-20T09:55:28.416Z,25.13
2017-09-20T09:57:55.360Z,24.47
2017-09-20T10:00:22.298Z,23.07
2017-09-20T10:02:48.470Z,23.23
2017-09-20T10:05:14.654Z,21.47
2017-09-20T10:07:41.599Z,22.57
2017-09-20T10:10:08.557Z,23.37
2017-09-20T10:12:40.641Z,23.50
2017-09-20T10:15:06.865Z,21.23
2017-09-20T10:17:33.071Z,22.30
2017-09-20T10:20:00.043Z,20.17
2017-09-20T10:22:26.253Z,18.53
2017-09-20T10:24:53.176Z,14.60
2017-09-20T10:27:19.344Z,14.10
2017-09-20T10:29:45.568Z,12.90
2017-09-20T10:32:11.828Z,10.33
2017-09-20T10:34:38.852Z,8.77
2017-09-20T10:37:05.097Z,7.70
2017-09-20T10:39:31.404Z,7.00
2017-09-20T10:41:57.626Z,8.40
2017-09-20T10:44:23.909Z,7.67
2017-09-20T10:46:50.142Z,6.17
2017-09-20T10:49:16.389Z,9.50
2017-09-20T10:51:42.644Z,10.60
2017-09-20T10:54:08.874Z,10.20
2017-09-20T10:56:35.120Z,11.10
2017-09-20T10:59:01.439Z,9.27
2017-09-20T11:01:27.650Z,9.33
2017-09-20T11:03:54.560Z,10.87
2017-09-20T11:06:20.740Z,9.67
2017-09-20T11:08:47.012Z,8.30
2017-09-20T11:11:13.184Z,6.43
2017-09-20T11:13:40.143Z,6.50
2017-09-20T11:16:06.397Z,7.23
2017-09-20T11:18:32.562Z,7.33
2017-09-20T11:20:58.770Z,6.90
2017-09-20T11:23:24.941Z,5.50
2017-09-20T11:25:51.851Z,5.90
2017-09-20T11:28:18.127Z,6.00
2017-09-20T11:30:44.417Z,6.07
2017-09-20T11:33:10.682Z,4.30
2017-09-20T11:35:37.680Z,4.17
2017-09-20T11:38:03.951Z,3.20
2017-09-20T11:40:31.269Z,3.60
2017-09-20T11:42:57.481Z,3.70
2017-09-20T11:45:23.705Z,5.47
2017-09-20T11:47:49.962Z,9.43
2017-09-20T11:50:16.980Z,7.07
2017-09-20T11:52:43.310Z,11.90
2017-09-20T11:55:09.551Z,9.57
2017-09-20T11:57:35.831Z,9.40
2017-09-20T12:00:02.826Z,12.70
2017-09-20T12:02:29.032Z,10.00
2017-09-20T12:04:55.266Z,7.60
2017-09-20T12:07:21.483Z,11.37
2017-09-20T12:09:47.773Z,11.70
2017-09-20T12:12:14.103Z,9.80
2017-09-20T12:14:40.304Z,11.47
2017-09-20T12:17:06.480Z,7.53
2017-09-20T12:19:33.375Z,7.57
2017-09-20T12:21:59.580Z,5.97
2017-09-20T12:24:25.750Z,5.17
2017-09-20T12:26:52.052Z,4.70
2017-09-20T12:29:18.263Z,5.53
2017-09-20T12:31:44.523Z,4.60
2017-09-20T12:34:10.742Z,4.80
2017-09-20T12:36:36.969Z,5.07
2017-09-20T12:39:03.317Z,5.67
2017-09-20T12:41:29.607Z,5.93
2017-09-20T12:43:55.864Z,6.63
2017-09-20T12:46:22.089Z,8.80
2017-09-20T12:48:48.334Z,5.53
2017-09-20T12:51:14.590Z,4.50
2017-09-20T12:53:40.769Z,3.80
2017-09-20T12:56:06.974Z,2.77
2017-09-20T12:58:33.163Z,3.93
2017-09-20T13:00:59.431Z,4.00
2017-09-20T13:03:25.660Z,5.20
2017-09-20T13:05:51.841Z,5.17
2017-09-20T13:08:18.120Z,7.17
2017-09-20T13:10:44.264Z,5.07
2017-09-20T13:13:10.493Z,5.30
2017-09-20T13:15:36.731Z,4.73
2017-09-20T13:18:02.985Z,2.70
2017-09-20T13:20:29.234Z,2.90
2017-09-20T13:22:55.413Z,5.00
2017-09-20T13:25:21.641Z,4.60
2017-09-20T13:27:47.895Z,2.90
2017-09-20T13:30:14.100Z,3.23
2017-09-20T13:32:40.303Z,3.80
2017-09-20T13:35:06.517Z,3.23
2017-09-20T13:37:33.476Z,2.90
2017-09-20T13:40:00.447Z,3.40
2017-09-20T13:42:26.668Z,2.70
2017-09-20T13:44:52.890Z,3.40
2017-09-20T13:47:19.157Z,1.23
2017-09-20T13:49:45.440Z,1.00
2017-09-20T13:52:12.420Z,0.97
2017-09-20T13:54:38.632Z,1.27
2017-09-20T13:57:04.936Z,1.07
2017-09-20T13:59:31.986Z,1.00
2017-09-20T14:01:58.951Z,0.80
2017-09-20T14:04:25.199Z,0.90
2017-09-20T14:06:51.376Z,0.80
2017-09-20T14:09:18.312Z,1.00
2017-09-20T14:11:44.614Z,1.07
2017-09-20T14:14:10.812Z,0.90
2017-09-20T14:16:37.090Z,1.00
2017-09-20T14:19:03.306Z,0.90
2017-09-20T14:21:29.553Z,1.53
2017-09-20T14:23:55.797Z,1.00
2017-09-20T14:26:22.766Z,1.10
2017-09-20T14:28:49.043Z,1.27
2017-09-20T14:31:15.961Z,1.03
2017-09-20T14:33:42.147Z,0.90
2017-09-20T14:36:09.139Z,1.30
2017-09-20T14:38:35.415Z,1.20
2017-09-20T14:41:01.681Z,1.00
2017-09-20T14:43:33.264Z,1.57
2017-09-20T14:45:59.492Z,1.20
2017-09-20T14:48:25.702Z,1.60
2017-09-20T14:50:51.940Z,1.60
2017-09-20T14:53:18.136Z,1.60
2017-09-20T14:55:45.119Z,2.03
2017-09-20T14:58:11.364Z,2.53
2017-09-20T15:00:37.762Z,3.30
2017-09-20T15:03:03.974Z,2.57
2017-09-20T15:05:30.207Z,2.67
2017-09-20T15:07:56.444Z,1.80
2017-09-20T15:10:22.606Z,1.70
2017-09-20T15:12:48.810Z,1.00
2017-09-20T15:15:15.003Z,1.03
2017-09-20T15:17:41.927Z,1.20
2017-09-20T15:20:08.127Z,1.13
2017-09-20T15:22:34.285Z,1.33
2017-09-20T15:25:00.467Z,1.20
2017-09-20T15:27:26.655Z,1.53
2017-09-20T15:29:53.645Z,1.37
2017-09-20T15:32:19.860Z,1.17
2017-09-20T15:34:46.217Z,1.63
2017-09-20T15:37:12.425Z,1.10
2017-09-20T15:39:38.615Z,1.37
2017-09-20T15:42:05.559Z,1.83
2017-09-20T15:44:32.505Z,1.20
2017-09-20T15:46:59.444Z,1.40
2017-09-20T15:49:27.148Z,1.97
2017-09-20T15:51:53.332Z,1.80
2017-09-20T15:54:19.508Z,2.40
2017-09-20T15:56:45.680Z,1.80
2017-09-20T15:59:11.993Z,1.70
2017-09-20T16:01:38.171Z,2.60
2017-09-20T16:04:05.093Z,2.70
2017-09-20T16:06:31.289Z,2.47
2017-09-20T16:08:57.596Z,3.00
2017-09-20T16:11:23.833Z,2.47
2017-09-20T16:13:50.068Z,2.13
2017-09-20T16:16:16.241Z,2.27
2017-09-20T16:18:42.578Z,2.60
2017-09-20T16:21:09.561Z,2.17
2017-09-20T16:23:35.804Z,2.70
2017-09-20T16:26:02.007Z,2.37
2017-09-20T16:28:28.236Z,2.90
2017-09-20T16:30:55.469Z,2.90
2017-09-20T16:33:21.715Z,2.63
2017-09-20T16:35:47.915Z,2.30
2017-09-20T16:38:14.179Z,2.50
2017-09-20T16:40:40.341Z,2.87
2017-09-20T16:43:06.659Z,3.37
2017-09-20T16:45:32.840Z,3.37
2017-09-20T16:47:59.735Z,3.27
2017-09-20T16:50:25.955Z,3.10
2017-09-20T16:52:52.158Z,4.10
2017-09-20T16:55:18.418Z,4.33
2017-09-20T16:57:44.862Z,3.37
2017-09-20T17:00:11.036Z,4.30
2017-09-20T17:02:37.928Z,3.83
2017-09-20T17:05:04.147Z,4.23
2017-09-20T17:07:30.491Z,4.87
2017-09-20T17:09:56.708Z,3.70
2017-09-20T17:12:30.226Z,4.43
2017-09-20T17:14:56.419Z,4.50
2017-09-20T17:17:22.621Z,5.00
2017-09-20T17:19:49.587Z,4.93
2017-09-20T17:22:15.898Z,4.70
2017-09-20T17:24:42.807Z,4.47
2017-09-20T17:27:09.032Z,4.20
2017-09-20T17:29:35.263Z,4.10
2017-09-20T17:32:01.460Z,4.37
2017-09-20T17:34:28.579Z,4.67
2017-09-20T17:36:55.514Z,4.10
2017-09-20T17:39:21.678Z,4.10
2017-09-20T17:41:47.904Z,4.20
2017-09-20T17:44:14.134Z,3.77
2017-09-20T17:46:40.392Z,3.70
2017-09-20T17:49:06.660Z,3.40
2017-09-20T17:51:32.848Z,3.33
2017-09-20T17:54:05.923Z,3.63
2017-09-20T17:56:32.146Z,3.77
2017-09-20T17:58:58.335Z,3.27
2017-09-20T18:01:25.475Z,3.83
2017-09-20T18:03:52.871Z,4.27
2017-09-20T18:06:19.073Z,4.20
2017-09-20T18:08:46.032Z,4.17
2017-09-20T18:11:12.992Z,5.10
2017-09-20T18:13:39.226Z,4.67
2017-09-20T18:16:05.412Z,5.30
2017-09-20T18:18:31.657Z,5.50
2017-09-20T18:20:58.628Z,7.23
2017-09-20T18:23:24.836Z,5.20
2017-09-20T18:25:51.939Z,6.80
2017-09-20T18:28:18.138Z,5.17
2017-09-20T18:30:44.334Z,5.03
2017-09-20T18:33:11.445Z,5.97
2017-09-20T18:35:37.638Z,5.70
2017-09-20T18:38:03.831Z,5.93
2017-09-20T18:40:30.961Z,5.20
2017-09-20T18:42:57.160Z,4.03
2017-09-20T18:45:23.393Z,4.50
2017-09-20T18:47:49.621Z,3.50
2017-09-20T18:50:15.933Z,3.90
2017-09-20T18:52:42.157Z,3.73
2017-09-20T18:55:08.341Z,3.43
2017-09-20T18:57:34.524Z,3.90
2017-09-20T19:00:00.707Z,4.07
2017-09-20T19:02:26.931Z,3.57
2017-09-20T19:04:53.305Z,3.40
2017-09-20T19:07:19.578Z,4.53
2017-09-20T19:09:45.778Z,4.10
2017-09-20T19:12:12.002Z,3.03
2017-09-20T19:14:38.195Z,3.20
2017-09-20T19:17:05.136Z,3.20
2017-09-20T19:19:32.097Z,3.50
2017-09-20T19:21:58.322Z,2.97
2017-09-20T19:24:25.269Z,3.17
2017-09-20T19:26:52.220Z,4.10
2017-09-20T19:29:19.156Z,4.13
2017-09-20T19:31:46.099Z,4.40
2017-09-20T19:34:13.187Z,5.57
2017-09-20T19:36:39.369Z,6.17
2017-09-20T19:39:06.289Z,6.70
2017-09-20T19:41:32.665Z,6.30
2017-09-20T19:43:59.601Z,7.83
2017-09-20T19:46:26.538Z,8.50
2017-09-20T19:48:53.463Z,7.30
2017-09-20T19:51:20.483Z,8.30
2017-09-20T19:53:46.730Z,9.33
2017-09-20T19:56:13.635Z,7.57
2017-09-20T19:58:39.809Z,9.23
2017-09-20T20:01:06.064Z,8.43
2017-09-20T20:03:32.975Z,9.23
2017-09-20T20:05:59.176Z,9.30
2017-09-20T20:08:25.411Z,9.37
2017-09-20T20:10:51.575Z,9.27
2017-09-20T20:13:18.514Z,8.73
2017-09-20T20:15:44.773Z,10.20
2017-09-20T20:18:11.682Z,10.30
2017-09-20T20:20:37.918Z,11.07
2017-09-20T20:23:04.138Z,9.53
2017-09-20T20:25:30.330Z,9.90
2017-09-20T20:27:56.540Z,8.90
2017-09-20T20:30:22.734Z,9.90
2017-09-20T20:32:48.896Z,9.83
2017-09-20T20:35:15.838Z,8.90
2017-09-20T20:37:42.805Z,10.17
2017-09-20T20:40:08.990Z,10.90
2017-09-20T20:42:35.952Z,10.50
2017-09-20T20:45:02.896Z,8.80
2017-09-20T20:47:29.823Z,10.57
2017-09-20T20:49:56.083Z,10.20
2017-09-20T20:52:23.003Z,13.27
2017-09-20T20:54:49.186Z,9.93
2017-09-20T20:57:15.375Z,11.47
2017-09-20T20:59:42.312Z,12.07
2017-09-20T21:02:09.239Z,10.30
2017-09-20T21:04:35.462Z,12.90
2017-09-20T21:07:01.647Z,10.40
2017-09-20T21:09:27.890Z,9.23
2017-09-20T21:11:54.075Z,12.87
2017-09-20T21:14:21.045Z,10.50
2017-09-20T21:16:47.225Z,10.93
2017-09-20T21:19:13.467Z,12.40
2017-09-20T21:21:39.636Z,10.07
2017-09-20T21:24:06.167Z,10.77
2017-09-20T21:26:32.351Z,8.87
2017-09-20T21:28:58.571Z,9.23
2017-09-20T21:31:24.735Z,10.73
2017-09-20T21:33:51.643Z,8.60
2017-09-20T21:38:51.415Z,7.93
2017-09-20T21:41:17.614Z,8.93
2017-09-20T21:43:43.783Z,9.10
2017-09-20T21:46:09.984Z,8.93
2017-09-20T21:48:36.903Z,8.23
2017-09-20T21:51:03.101Z,8.60
2017-09-20T21:53:29.329Z,9.33
2017-09-20T21:55:55.521Z,8.07
2017-09-20T21:58:22.451Z,9.17
2017-09-20T22:00:49.415Z,8.87
2017-09-20T22:03:16.149Z,8.20
2017-09-20T22:05:43.067Z,9.53
2017-09-20T22:08:09.257Z,10.40
2017-09-20T22:10:35.530Z,8.90
2017-09-20T22:13:01.715Z,9.70
2017-09-20T22:15:40.357Z,9.20
2017-09-20T22:18:18.888Z,8.90
2017-09-20T22:20:57.651Z,10.30
2017-09-20T22:23:36.295Z,9.80
2017-09-20T22:26:14.777Z,10.53
2017-09-20T22:28:41.709Z,10.70
2017-09-20T22:31:07.935Z,11.13
2017-09-20T22:33:34.135Z,10.10
2017-09-20T22:36:00.291Z,10.60
2017-09-20T22:38:26.448Z,11.37
2017-09-20T22:40:52.643Z,10.20
2017-09-20T22:43:18.817Z,11.00
2017-09-20T22:45:44.999Z,11.03
2017-09-20T22:48:11.175Z,11.13
2017-09-20T22:50:37.400Z,10.67
2017-09-20T22:53:03.599Z,12.83
2017-09-20T22:55:30.587Z,11.80
2017-09-20T22:57:56.750Z,11.73
2017-09-20T23:00:22.925Z,11.83
2017-09-20T23:02:49.135Z,12.37
2017-09-20T23:05:16.048Z,11.83
2017-09-20T23:07:42.267Z,12.83
2017-09-20T23:10:08.439Z,12.60
2017-09-20T23:12:35.327Z,12.60
2017-09-20T23:15:01.542Z,13.80
2017-09-20T23:17:27.721Z,11.43
2017-09-20T23:19:54.675Z,13.53
2017-09-20T23:22:21.632Z,12.43
2017-09-20T23:24:47.820Z,13.90
2017-09-20T23:27:14.035Z,12.90
2017-09-20T23:29:40.210Z,12.90
2017-09-20T23:32:07.127Z,14.87
2017-09-20T23:34:33.327Z,14.57
2017-09-20T23:36:59.482Z,14.27
2017-09-20T23:39:25.696Z,14.53
2017-09-20T23:41:51.906Z,15.00
2017-09-20T23:44:18.073Z,15.20
2017-09-20T23:46:44.990Z,14.40
2017-09-20T23:49:11.180Z,15.20
2017-09-20T23:51:37.431Z,15.47
2017-09-20T23:54:03.606Z,15.37
2017-09-20T23:56:30.527Z,15.53
2017-09-20T23:58:56.713Z,16.87
